Time;durP1;ratioP1;P1;durP2;ratioP2;P2;SDS_P1;SDS_P2;PMS_P1;PMS_P2;Temp;Humidity;BMP_temperature;BMP_pressure;BME280_temperature;BME280_humidity;BME280_pressure;Samples;Min_cycle;Max_cycle;Signal;HPM_P1;HPM_P2
2022/09/10 00:01:55;;;;;;;1.58;0.43;;;;;;;13.42;100.00;101584.75;10290928;28;20047;-79
2022/09/10 00:06:57;;;;;;;0.52;0.40;;;;;;;13.42;100.00;101597.69;10334139;28;20050;-79
2022/09/10 00:11:59;;;;;;;0.88;0.63;;;;;;;13.37;100.00;101592.34;10319975;28;20383;-79
2022/09/10 00:17:01;;;;;;;0.52;0.32;;;;;;;13.49;100.00;101597.00;10305208;28;20071;-80
2022/09/10 00:22:02;;;;;;;0.30;0.20;;;;;;;13.52;100.00;101603.97;10297681;28;20557;-79
2022/09/10 00:27:04;;;;;;;0.13;0.13;;;;;;;13.55;100.00;101597.16;10319605;28;20042;-79
2022/09/10 00:32:05;;;;;;;0.17;0.10;;;;;;;13.58;100.00;101594.66;10305466;28;20066;-79
2022/09/10 00:37:07;;;;;;;0.55;0.55;;;;;;;13.58;100.00;101599.81;10316853;28;20125;-79
2022/09/10 00:42:10;;;;;;;0.30;0.17;;;;;;;13.61;100.00;101599.03;10295728;28;20043;-80
2022/09/10 00:47:20;;;;;;;0.95;0.43;;;;;;;13.76;100.00;101607.16;10277398;28;20475;-80
2022/09/10 00:52:22;;;;;;;0.47;0.30;;;;;;;13.84;100.00;101604.75;10303956;28;20080;-80
2022/09/10 00:57:26;;;;;;;0.55;0.40;;;;;;;13.86;100.00;101595.31;10303049;28;20038;-80
2022/09/10 01:02:28;;;;;;;4.80;0.57;;;;;;;13.88;100.00;101591.03;10329141;28;20391;-80
2022/09/10 01:07:31;;;;;;;0.40;0.40;;;;;;;13.92;100.00;101592.84;10329155;28;20034;-80
2022/09/10 01:13:02;;;;;;;1.00;0.68;;;;;;;14.00;100.00;101574.00;10327055;28;20125;-80
2022/09/10 01:18:49;;;;;;;0.43;0.43;;;;;;;14.06;100.00;101577.63;10297038;28;20098;-80
2022/09/10 01:24:32;;;;;;;0.30;0.30;;;;;;;14.10;100.00;101570.81;10239482;28;20055;-80
2022/09/10 01:29:54;;;;;;;2.80;0.68;;;;;;;14.11;100.00;101559.59;10281202;28;20042;-80
2022/09/10 01:35:29;;;;;;;1.90;1.17;;;;;;;14.16;100.00;101549.31;10320685;28;20049;-80
2022/09/10 01:40:33;;;;;;;0.47;0.47;;;;;;;14.19;100.00;101550.25;10324348;28;20039;-80
2022/09/10 01:45:53;;;;;;;0.65;0.55;;;;;;;14.21;100.00;101553.75;10369287;28;20326;-79
2022/09/10 01:51:09;;;;;;;8.25;1.02;;;;;;;14.20;100.00;101546.81;10330456;28;20486;-80
2022/09/10 01:56:43;;;;;;;1.00;0.50;;;;;;;14.25;100.00;101528.78;10340162;28;20038;-80
2022/09/10 02:01:51;;;;;;;0.90;0.85;;;;;;;14.21;100.00;101522.66;10315984;28;20047;-80
2022/09/10 02:06:55;;;;;;;0.63;0.32;;;;;;;14.18;100.00;101520.03;10320017;28;20045;-78
2022/09/10 02:11:57;;;;;;;0.68;0.68;;;;;;;14.19;100.00;101524.31;10333105;28;20070;-79
2022/09/10 02:17:33;;;;;;;2.97;1.08;;;;;;;14.19;100.00;101518.28;10295450;28;20047;-79
2022/09/10 02:22:38;;;;;;;0.65;0.65;;;;;;;14.20;100.00;101515.72;10318673;28;20065;-81
2022/09/10 02:27:40;;;;;;;0.60;0.38;;;;;;;14.19;100.00;101526.06;10309916;28;20074;-81
2022/09/10 02:32:43;;;;;;;0.75;0.73;;;;;;;14.19;100.00;101518.28;10295670;28;20058;-81
2022/09/10 02:37:49;;;;;;;0.57;0.57;;;;;;;14.18;100.00;101516.53;10327150;28;20058;-81
2022/09/10 02:42:50;;;;;;;0.65;0.65;;;;;;;14.18;100.00;101517.44;10307047;28;20046;-81
2022/09/10 02:47:57;;;;;;;0.98;0.77;;;;;;;14.21;100.00;101520.06;10335771;28;20038;-81
2022/09/10 02:53:00;;;;;;;1.48;0.73;;;;;;;14.21;100.00;101512.28;10314736;28;20046;-81
2022/09/10 02:58:01;;;;;;;1.90;0.63;;;;;;;14.25;100.00;101506.34;10338125;28;20096;-81
2022/09/10 03:03:03;;;;;;;1.23;0.88;;;;;;;14.24;100.00;101499.41;10279250;28;20046;-81
2022/09/10 03:08:08;;;;;;;4.65;1.17;;;;;;;14.24;100.00;101511.47;10322443;28;20042;-80
2022/09/10 03:13:11;;;;;;;0.63;0.63;;;;;;;14.20;100.00;101510.53;10325656;28;20531;-80
2022/09/10 03:18:14;;;;;;;1.50;0.60;;;;;;;14.11;100.00;101511.22;10318879;28;20425;-82
2022/09/10 03:23:18;;;;;;;2.03;0.77;;;;;;;14.13;100.00;101529.38;10280989;28;20568;-82
2022/09/10 03:28:20;;;;;;;0.43;0.20;;;;;;;14.14;100.00;101538.91;10329298;28;20410;-81
2022/09/10 03:33:22;;;;;;;0.95;0.45;;;;;;;14.12;100.00;101548.38;10322837;28;20090;-81
2022/09/10 03:38:24;;;;;;;0.45;0.25;;;;;;;14.13;100.00;101547.53;10334980;28;20046;-82
2022/09/10 03:43:26;;;;;;;0.95;0.52;;;;;;;14.13;100.00;101555.28;10335417;28;20477;-81
2022/09/10 03:48:28;;;;;;;2.20;0.88;;;;;;;14.12;100.00;101558.72;10321435;28;20042;-82
2022/09/10 03:53:30;;;;;;;0.77;0.50;;;;;;;14.15;100.00;101576.94;10326504;28;20077;-84
2022/09/10 03:58:32;;;;;;;0.38;0.38;;;;;;;14.15;100.00;101574.34;10334305;28;20045;-82
2022/09/10 04:03:33;;;;;;;0.65;0.47;;;;;;;14.11;100.00;101581.19;10318309;28;20144;-82
2022/09/10 04:08:35;;;;;;;1.23;0.82;;;;;;;14.11;100.00;101585.50;10324081;28;20034;-81
2022/09/10 04:13:39;;;;;;;4.57;0.88;;;;;;;14.12;100.00;101589.81;10318409;28;20304;-81
2022/09/10 04:18:43;;;;;;;0.25;0.20;;;;;;;14.14;100.00;101593.34;10306319;28;20549;-81
2022/09/10 04:23:52;;;;;;;0.70;0.47;;;;;;;14.16;100.00;101599.44;10320256;28;20535;-81
2022/09/10 04:28:54;;;;;;;0.60;0.50;;;;;;;14.10;100.00;101601.88;10303562;28;20043;-81
2022/09/10 04:33:58;;;;;;;0.73;0.40;;;;;;;14.09;100.00;101600.13;10306334;28;20046;-81
2022/09/10 04:39:00;;;;;;;1.30;1.00;;;;;;;14.12;100.00;101606.25;10324099;28;20052;-82
2022/09/10 04:44:05;;;;;;;1.13;0.40;;;;;;;14.13;100.00;101607.13;10321943;28;20046;-81
2022/09/10 04:49:20;;;;;;;1.60;0.40;;;;;;;14.17;100.00;101618.44;10309988;28;20149;-81
2022/09/10 04:54:22;;;;;;;0.40;0.40;;;;;;;14.20;100.00;101624.56;10321163;28;20493;-81
2022/09/10 04:59:23;;;;;;;1.17;0.80;;;;;;;14.21;100.00;101620.28;10308128;28;20039;-81
2022/09/10 05:04:25;;;;;;;2.17;1.02;;;;;;;14.28;100.00;101630.78;10293442;28;20130;-81
2022/09/10 05:09:30;;;;;;;1.30;0.73;;;;;;;14.32;100.00;101633.47;10278764;28;20043;-81
2022/09/10 05:14:34;;;;;;;0.50;0.47;;;;;;;14.28;100.00;101635.13;10302670;28;20513;-81
2022/09/10 05:19:36;;;;;;;0.95;0.60;;;;;;;14.30;100.00;101630.81;10305307;28;20050;-81
2022/09/10 05:24:42;;;;;;;2.55;1.02;;;;;;;14.33;100.00;101635.22;10290694;28;20133;-81
2022/09/10 05:29:44;;;;;;;0.32;0.32;;;;;;;14.36;100.00;101633.56;10300140;28;20057;-81
2022/09/10 05:34:49;;;;;;;0.73;0.50;;;;;;;14.35;100.00;101634.41;10307317;28;20046;-81
2022/09/10 05:39:51;;;;;;;0.52;0.52;;;;;;;14.31;100.00;101636.91;10299339;28;20057;-81
2022/09/10 05:44:53;;;;;;;0.90;0.57;;;;;;;14.34;100.00;101637.84;10286121;28;20089;-82
2022/09/10 05:49:55;;;;;;;0.47;0.47;;;;;;;14.34;100.00;101636.94;10308157;28;20491;-82
2022/09/10 05:54:58;;;;;;;0.80;0.47;;;;;;;14.37;100.00;101642.22;10352391;28;20050;-82
2022/09/10 06:00:01;;;;;;;0.40;0.40;;;;;;;14.39;100.00;101650.91;10344532;28;20038;-81
2022/09/10 06:05:18;;;;;;;0.73;0.65;;;;;;;14.46;100.00;101652.78;10373347;28;20055;-81
2022/09/10 06:10:21;;;;;;;0.65;0.47;;;;;;;14.52;100.00;101667.63;10321698;28;20055;-82
2022/09/10 06:15:25;;;;;;;2.20;0.82;;;;;;;14.53;100.00;101659.84;10306139;28;20125;-81
2022/09/10 06:20:27;;;;;;;1.08;0.93;;;;;;;14.55;100.00;101676.34;10307038;28;20050;-81
2022/09/10 06:25:30;;;;;;;1.67;1.02;;;;;;;14.59;100.00;101674.69;10288461;28;20043;-81
2022/09/10 06:30:31;;;;;;;0.77;0.77;;;;;;;14.53;100.00;101675.41;10298142;28;20058;-81
2022/09/10 06:35:34;;;;;;;0.43;0.40;;;;;;;14.51;100.00;101677.09;10304029;28;20050;-80
2022/09/10 06:40:36;;;;;;;1.65;0.50;;;;;;;14.56;100.00;101672.88;10297184;28;20058;-81
2022/09/10 06:45:39;;;;;;;0.93;0.77;;;;;;;14.58;100.00;101680.72;10302025;28;20447;-80
2022/09/10 06:50:57;;;;;;;1.30;0.60;;;;;;;14.59;100.00;101688.50;10291469;28;20387;-80
2022/09/10 06:56:13;;;;;;;1.92;0.85;;;;;;;14.64;100.00;101693.81;10325959;28;20039;-80
2022/09/10 07:01:18;;;;;;;0.50;0.50;;;;;;;14.63;100.00;101701.56;10316979;28;20042;-80
2022/09/10 07:06:34;;;;;;;0.70;0.63;;;;;;;14.60;100.00;101698.03;10337236;28;20046;-81
2022/09/10 07:11:43;;;;;;;0.85;0.43;;;;;;;14.65;100.00;101699.84;10289192;28;20051;-80
2022/09/10 07:16:49;;;;;;;0.30;0.20;;;;;;;14.83;100.00;101705.47;10309833;28;20035;-81
2022/09/10 07:21:51;;;;;;;0.82;0.50;;;;;;;14.90;100.00;101712.53;10287670;28;20144;-81
2022/09/10 07:26:52;;;;;;;1.13;0.65;;;;;;;14.97;100.00;101703.16;10317840;28;20379;-81
2022/09/10 07:31:58;;;;;;;0.50;0.40;;;;;;;15.04;100.00;101718.00;10300310;28;20105;-81
2022/09/10 07:37:00;;;;;;;0.80;0.80;;;;;;;15.17;100.00;101721.72;10318466;28;20062;-81
2022/09/10 07:42:03;;;;;;;0.43;0.43;;;;;;;15.16;100.00;101712.19;10322615;28;20105;-81
2022/09/10 07:47:09;;;;;;;1.73;1.23;;;;;;;15.18;100.00;101715.69;10298056;28;20065;-82
2022/09/10 07:52:12;;;;;;;2.97;1.95;;;;;;;15.18;100.00;101715.69;10285619;28;20047;-82
2022/09/10 07:57:22;;;;;;;0.82;0.70;;;;;;;15.09;100.00;101715.50;10304769;28;20079;-80
2022/09/10 08:02:24;;;;;;;0.88;0.75;;;;;;;15.08;100.00;101705.97;10304443;28;20053;-80
2022/09/10 08:07:32;;;;;;;0.65;0.52;;;;;;;15.05;100.00;101711.97;10304488;28;20735;-81
2022/09/10 08:12:38;;;;;;;2.13;0.68;;;;;;;15.07;100.00;101712.88;10292816;28;20039;-81
2022/09/10 08:17:41;;;;;;;2.13;0.63;;;;;;;15.01;100.00;101712.78;10295573;28;20046;-80
2022/09/10 08:22:43;;;;;;;0.52;0.52;;;;;;;14.95;100.00;101714.34;10299475;28;20050;-82
2022/09/10 08:27:45;;;;;;;0.60;0.30;;;;;;;14.94;100.00;101722.97;10279330;28;20074;-81
2022/09/10 08:32:47;;;;;;;1.27;0.85;;;;;;;14.84;100.00;101712.44;10303599;28;20078;-82
2022/09/10 08:37:53;;;;;;;0.77;0.35;;;;;;;14.85;100.00;101732.34;10283343;28;20394;-82
2022/09/10 08:42:55;;;;;;;0.30;0.25;;;;;;;14.84;100.00;101722.81;10300261;28;20046;-82
2022/09/10 08:48:05;;;;;;;1.10;0.55;;;;;;;14.83;100.00;101720.16;10275187;28;20042;-78
2022/09/10 08:53:22;;;;;;;0.65;0.55;;;;;;;14.87;100.00;101738.41;10311049;28;20039;-80
2022/09/10 08:58:38;;;;;;;1.13;1.02;;;;;;;14.82;100.00;101734.00;10286065;28;20828;-80
2022/09/10 09:03:44;;;;;;;1.05;0.52;;;;;;;14.78;100.00;101738.22;10272732;28;20101;-79
2022/09/10 09:08:48;;;;;;;0.93;0.35;;;;;;;14.83;100.00;101744.41;10327881;28;20053;-80
2022/09/10 09:14:16;;;;;;;0.75;0.30;;;;;;;14.79;100.00;101745.16;10290448;28;20058;-80
2022/09/10 09:19:33;;;;;;;0.75;0.75;;;;;;;14.73;100.00;101747.63;10302689;28;20058;-79
2022/09/10 09:24:56;;;;;;;0.65;0.40;;;;;;;14.85;100.00;101747.00;10311235;28;20043;-80
2022/09/10 09:30:02;;;;;;;0.93;0.30;;;;;;;14.90;100.00;101759.25;10292453;28;20542;-78
2022/09/10 09:35:31;;;;;;;0.55;0.40;;;;;;;15.03;100.00;101760.41;10298441;28;20058;-79
2022/09/10 09:40:57;;;;;;;0.60;0.38;;;;;;;15.11;100.00;101767.47;10269321;28;20050;-78
2022/09/10 09:46:04;;;;;;;0.38;0.38;;;;;;;15.05;100.00;101773.41;10302226;28;20047;-79
2022/09/10 09:51:12;;;;;;;0.75;0.57;;;;;;;15.07;100.00;101779.50;10325054;28;20102;-78
2022/09/10 09:56:35;;;;;;;1.00;0.70;;;;;;;15.12;100.00;101774.38;10347036;28;20034;-79
2022/09/10 10:01:41;;;;;;;0.25;0.22;;;;;;;15.18;100.00;101778.00;10324055;28;20050;-79
2022/09/10 10:06:53;;;;;;;0.73;0.50;;;;;;;15.17;100.00;101778.84;10307131;28;20398;-79
2022/09/10 10:12:06;;;;;;;0.47;0.30;;;;;;;15.31;100.00;101783.44;10297243;28;20137;-79
2022/09/10 10:17:40;;;;;;;1.27;0.55;;;;;;;15.36;100.00;101790.47;10315625;28;20045;-79
2022/09/10 10:22:44;;;;;;;0.88;0.50;;;;;;;15.32;100.00;101785.19;10284703;28;20463;-79
2022/09/10 10:27:50;;;;;;;0.70;0.30;;;;;;;15.52;100.00;101791.69;10295973;28;20078;-79
2022/09/10 10:32:55;;;;;;;0.70;0.50;;;;;;;15.40;100.00;101781.03;10319038;28;20076;-79
2022/09/10 10:38:04;;;;;;;0.73;0.47;;;;;;;15.41;100.00;101782.78;10304275;28;20088;-79
2022/09/10 10:43:40;;;;;;;1.03;0.53;;;;;;;15.48;100.00;101774.25;10287599;28;20065;-79
2022/09/10 10:49:04;;;;;;;0.43;0.25;;;;;;;15.75;100.00;101777.34;10302029;28;20051;-80
2022/09/10 10:54:48;;;;;;;0.35;0.22;;;;;;;16.02;100.00;101783.06;10311600;28;20057;-79
2022/09/10 11:00:08;;;;;;;0.25;0.08;;;;;;;16.39;100.00;101790.63;10318812;28;20105;-79
2022/09/10 11:05:30;;;;;;;1.42;0.70;;;;;;;16.75;100.00;101801.59;10330303;28;20058;-80
2022/09/10 11:10:46;;;;;;;0.80;0.47;;;;;;;16.86;100.00;101783.53;10313531;28;20065;-79
2022/09/10 11:16:03;;;;;;;1.05;0.60;;;;;;;16.49;100.00;101748.28;10326385;28;20070;-80
2022/09/10 11:21:48;;;;;;;0.10;0.10;;;;;;;16.77;100.00;101727.88;10322573;28;20506;-79
2022/09/10 11:26:53;;;;;;;0.30;0.10;;;;;;;16.67;100.00;101694.78;10275242;28;20515;-78
2022/09/10 11:32:05;;;;;;;0.82;0.65;;;;;;;17.03;100.00;101667.50;10329769;28;20142;-78
2022/09/10 11:37:18;;;;;;;0.63;0.45;;;;;;;18.20;100.00;101630.31;10332220;28;20112;-78
2022/09/10 11:42:43;;;;;;;0.63;0.47;;;;;;;17.92;100.00;101541.44;10323623;28;20097;-78
2022/09/10 11:48:29;;;;;;;0.63;0.40;;;;;;;17.11;100.00;101508.78;10311562;28;20042;-79
2022/09/10 11:53:31;;;;;;;0.60;0.60;;;;;;;16.75;100.00;101521.41;10317047;28;20051;-78
2022/09/10 11:58:41;;;;;;;0.57;0.32;;;;;;;16.40;100.00;101534.91;10308619;28;20085;-79
2022/09/10 12:03:55;;;;;;;0.35;0.35;;;;;;;16.51;100.00;101553.25;10339085;28;20137;-79
2022/09/10 12:09:13;;;;;;;0.50;0.43;;;;;;;16.60;100.00;101547.28;10288929;28;20093;-79
2022/09/10 12:14:18;;;;;;;0.45;0.20;;;;;;;16.79;100.00;101481.56;10301911;28;20117;-79
2022/09/10 12:19:28;;;;;;;0.10;0.10;;;;;;;17.01;100.00;101466.19;10304354;28;20100;-79
2022/09/10 12:24:36;;;;;;;0.40;0.30;;;;;;;17.36;100.00;101416.09;10312864;28;20070;-79
2022/09/10 12:29:39;;;;;;;0.20;0.20;;;;;;;17.51;100.00;101278.97;10302305;28;20085;-79
2022/09/10 12:34:41;;;;;;;0.20;0.20;;;;;;;16.99;100.00;101257.06;10295389;28;20598;-79
2022/09/10 12:39:43;;;;;;;0.93;0.70;;;;;;;16.80;100.00;101301.16;10278203;28;20538;-80
2022/09/10 12:44:46;;;;;;;0.60;0.20;;;;;;;16.98;100.00;101296.97;10311479;28;20081;-80
2022/09/10 12:49:56;;;;;;;0.13;0.13;;;;;;;17.60;100.00;101328.50;10285055;28;20042;-80
2022/09/10 12:55:20;;;;;;;1.20;0.35;;;;;;;18.23;100.00;101279.13;10291183;28;20058;-79
2022/09/10 13:00:46;;;;;;;1.10;0.40;;;;;;;18.47;100.00;101259.09;10323654;28;20127;-80
2022/09/10 13:05:50;;;;;;;0.93;0.47;;;;;;;18.68;100.00;101237.31;10311245;28;20050;-80
2022/09/10 13:10:58;;;;;;;1.02;0.63;;;;;;;18.50;100.00;101206.06;10310536;28;20073;-79
2022/09/10 13:16:02;;;;;;;0.55;0.55;;;;;;;18.69;100.00;101222.56;10303303;28;20049;-80
2022/09/10 13:21:22;;;;;;;3.35;1.23;;;;;;;18.77;100.00;101188.59;10316020;28;20049;-80
2022/09/10 13:26:37;;;;;;;1.80;0.63;;;;;;;19.62;100.00;101181.16;10293707;28;20498;-78
2022/09/10 13:31:43;;;;;;;1.30;0.70;;;;;;;19.56;100.00;101144.63;10312832;28;20801;-79
2022/09/10 13:37:17;;;;;;;0.20;0.20;;;;;;;18.88;100.00;101145.00;10300654;28;20050;-79
2022/09/10 13:42:48;;;;;;;0.90;0.30;;;;;;;18.72;100.00;101165.09;10314639;28;20123;-78
2022/09/10 13:48:00;;;;;;;0.30;0.20;;;;;;;18.29;100.00;101166.09;10298698;28;20510;-78
2022/09/10 13:53:07;;;;;;;0.85;0.45;;;;;;;18.05;100.00;101201.78;10332199;28;20109;-79
2022/09/10 13:58:20;;;;;;;0.28;0.28;;;;;;;18.11;100.00;101213.06;10316007;28;20047;-78
2022/09/10 14:03:24;;;;;;;0.30;0.30;;;;;;;18.13;100.00;101247.84;10331969;28;20054;-79
2022/09/10 14:08:41;;;;;;;1.92;0.22;;;;;;;17.94;100.00;101289.50;10322362;28;20210;-80
2022/09/10 14:14:01;;;;;;;0.45;0.38;;;;;;;17.75;100.00;101299.91;10309450;28;20137;-79
2022/09/10 14:19:13;;;;;;;0.20;0.20;;;;;;;17.77;100.00;101300.75;10325374;28;20644;-79
2022/09/10 14:24:44;;;;;;;0.43;0.43;;;;;;;17.70;100.00;101306.81;10324387;28;20073;-79
2022/09/10 14:29:46;;;;;;;0.30;0.30;;;;;;;17.57;100.00;101315.47;10311238;28;20466;-79
2022/09/10 14:34:47;;;;;;;0.55;0.55;;;;;;;17.58;100.00;101323.28;10290190;28;20105;-79
2022/09/10 14:39:50;;;;;;;1.02;0.45;;;;;;;17.75;100.00;101318.13;10302906;28;20090;-79
2022/09/10 14:44:53;;;;;;;0.60;0.57;;;;;;;18.01;100.00;101311.25;10311598;28;20069;-79
2022/09/10 14:50:31;;;;;;;0.50;0.50;;;;;;;17.95;100.00;101304.28;10310756;28;20043;-79
2022/09/10 14:55:32;;;;;;;0.95;0.80;;;;;;;18.21;100.00;101283.47;10324072;28;20057;-80
2022/09/10 15:00:34;;;;;;;0.68;0.40;;;;;;;18.61;100.00;101272.13;10324682;28;20038;-79
2022/09/10 15:05:36;;;;;;;1.35;1.10;;;;;;;18.88;100.00;101233.78;10326350;28;20129;-79
2022/09/10 15:10:38;;;;;;;2.00;0.77;;;;;;;19.31;100.00;101222.31;10327354;28;20055;-79
2022/09/10 15:15:39;;;;;;;0.52;0.50;;;;;;;19.60;100.00;101223.88;10307941;28;20529;-80
2022/09/10 15:20:41;;;;;;;9.68;2.08;;;;;;;19.39;100.00;101219.69;10324483;28;20053;-79
2022/09/10 15:25:49;;;;;;;1.25;1.13;;;;;;;19.65;100.00;101222.13;10328361;28;20050;-79
2022/09/10 15:30:51;;;;;;;1.60;0.90;;;;;;;19.59;100.00;101228.25;10310931;28;20042;-79
2022/09/10 15:35:53;;;;;;;1.02;0.70;;;;;;;19.47;100.00;101233.56;10301572;28;20474;-80
2022/09/10 15:41:06;;;;;;;0.20;0.13;;;;;;;19.31;100.00;101238.88;10321826;28;20045;-79
2022/09/10 15:46:09;;;;;;;0.43;0.25;;;;;;;19.34;100.00;101228.38;10310010;28;20059;-79
2022/09/10 15:51:15;;;;;;;1.38;0.45;;;;;;;18.95;100.00;101232.91;10319002;28;20047;-79
2022/09/10 15:56:18;;;;;;;0.65;0.30;;;;;;;18.92;100.00;101243.38;10317576;28;20089;-79
2022/09/10 16:01:23;;;;;;;0.90;0.63;;;;;;;18.93;100.00;101255.56;10289965;28;20062;-79
2022/09/10 16:06:26;;;;;;;0.60;0.47;;;;;;;18.82;100.00;101255.56;10295177;28;20145;-79
2022/09/10 16:11:30;;;;;;;0.35;0.15;;;;;;;18.62;100.00;101253.00;10310500;28;20058;-79
2022/09/10 16:16:33;;;;;;;0.43;0.30;;;;;;;18.62;100.00;101263.44;10313292;28;20129;-79
2022/09/10 16:21:36;;;;;;;0.50;0.30;;;;;;;18.67;100.00;101292.13;10297818;28;20560;-79
2022/09/10 16:26:40;;;;;;;0.47;0.30;;;;;;;18.62;100.00;101294.75;10297753;28;20066;-78
2022/09/10 16:31:44;;;;;;;0.32;0.32;;;;;;;18.64;100.00;101315.63;10308693;28;20042;-79
2022/09/10 16:36:50;;;;;;;1.02;0.60;;;;;;;18.55;100.00;101324.31;10290504;28;20054;-78
2022/09/10 16:41:51;;;;;;;0.38;0.30;;;;;;;18.47;100.00;101326.91;10319191;28;20414;-79
2022/09/10 16:46:54;;;;;;;0.22;0.20;;;;;;;18.44;100.00;101333.88;10275296;28;20146;-79
2022/09/10 16:51:55;;;;;;;0.22;0.13;;;;;;;18.28;100.00;101333.00;10279647;28;20113;-79
2022/09/10 16:56:58;;;;;;;0.80;0.38;;;;;;;18.19;100.00;101349.53;10313794;28;20039;-79
2022/09/10 17:02:00;;;;;;;0.08;0.08;;;;;;;18.05;100.00;101355.59;10322986;28;20077;-78
2022/09/10 17:07:01;;;;;;;0.30;0.30;;;;;;;18.00;100.00;101385.97;10289035;28;20394;-79
2022/09/10 17:12:03;;;;;;;0.20;0.20;;;;;;;17.98;100.00;101379.91;10311078;28;20038;-78
2022/09/10 17:17:05;;;;;;;0.17;0.10;;;;;;;17.90;100.00;101405.91;10297696;28;20038;-79
2022/09/10 17:22:06;;;;;;;0.45;0.32;;;;;;;17.86;100.00;101424.13;10313865;28;20463;-76
2022/09/10 17:27:10;;;;;;;0.32;0.20;;;;;;;17.65;100.00;101449.25;10289517;28;20105;-76
2022/09/10 17:32:11;;;;;;;1.48;0.20;;;;;;;17.57;100.00;101461.34;10307467;28;20142;-76
2022/09/10 17:37:14;;;;;;;2.05;1.13;;;;;;;17.40;100.00;101462.09;10302109;28;20597;-76
2022/09/10 17:42:16;;;;;;;0.52;0.40;;;;;;;17.36;100.00;101478.59;10323876;28;20043;-77
2022/09/10 17:47:17;;;;;;;0.30;0.30;;;;;;;17.28;100.00;101490.69;10281593;28;20047;-76
2022/09/10 17:52:20;;;;;;;0.15;0.15;;;;;;;17.17;100.00;101481.91;10308908;28;20093;-76
2022/09/10 17:57:21;;;;;;;0.40;0.32;;;;;;;17.13;100.00;101475.78;10311307;28;20119;-76
2022/09/10 18:02:23;;;;;;;0.20;0.15;;;;;;;17.07;100.00;101491.38;10306912;28;20113;-76
2022/09/10 18:07:24;;;;;;;0.73;0.32;;;;;;;17.03;100.00;101500.88;10295514;28;20042;-79
2022/09/10 18:12:26;;;;;;;0.10;0.10;;;;;;;16.98;100.00;101517.34;10310195;28;20054;-79
2022/09/10 18:17:27;;;;;;;1.58;0.57;;;;;;;16.83;100.00;101551.84;10303469;28;20038;-79
2022/09/10 18:22:29;;;;;;;3.80;0.90;;;;;;;16.70;100.00;101553.44;10304570;28;20135;-79
2022/09/10 18:27:30;;;;;;;0.77;0.40;;;;;;;16.56;100.00;101576.72;10288747;28;20525;-78
2022/09/10 18:32:33;;;;;;;1.08;0.40;;;;;;;16.55;100.00;101590.56;10304604;28;20116;-79
2022/09/10 18:37:34;;;;;;;0.45;0.25;;;;;;;16.41;100.00;101601.69;10315060;28;20097;-79
2022/09/10 18:42:37;;;;;;;0.45;0.32;;;;;;;16.39;100.00;101621.59;10312494;28;20145;-79
2022/09/10 18:47:38;;;;;;;0.30;0.30;;;;;;;16.43;100.00;101633.75;10326575;28;20582;-79
2022/09/10 18:52:45;;;;;;;0.10;0.10;;;;;;;16.34;100.00;101644.06;10305399;28;20058;-78
2022/09/10 18:57:47;;;;;;;0.25;0.20;;;;;;;16.36;100.00;101647.53;10317088;28;20054;-79
2022/09/10 19:02:48;;;;;;;0.25;0.17;;;;;;;16.41;100.00;101648.50;10293631;28;20053;-79
2022/09/10 19:07:50;;;;;;;0.20;0.20;;;;;;;16.47;100.00;101658.97;10308552;28;20050;-76
2022/09/10 19:12:52;;;;;;;1.20;0.75;;;;;;;16.52;100.00;101663.34;10329343;28;20105;-76
2022/09/10 19:17:54;;;;;;;1.13;0.40;;;;;;;16.58;100.00;101673.84;10321036;28;20137;-76
2022/09/10 19:22:55;;;;;;;0.20;0.13;;;;;;;16.54;100.00;101672.91;10294874;28;20050;-75
2022/09/10 19:27:57;;;;;;;0.10;0.10;;;;;;;16.54;100.00;101687.66;10310958;28;20150;-76
2022/09/10 19:32:58;;;;;;;1.08;0.17;;;;;;;16.54;100.00;101704.13;10307431;28;20578;-76
2022/09/10 19:38:00;;;;;;;0.30;0.28;;;;;;;16.50;100.00;101713.63;10321479;28;20092;-76
2022/09/10 19:43:22;;;;;;;1.33;0.57;;;;;;;16.49;100.00;101735.28;10310144;28;20047;-76
2022/09/10 19:48:23;;;;;;;0.28;0.28;;;;;;;16.52;100.00;101731.88;10300432;28;20398;-76
2022/09/10 19:53:25;;;;;;;0.10;0.10;;;;;;;16.55;100.00;101725.84;10309281;28;20083;-76
2022/09/10 19:58:27;;;;;;;0.95;0.82;;;;;;;16.54;100.00;101729.28;10327587;28;20141;-77
2022/09/10 20:03:28;;;;;;;0.68;0.20;;;;;;;16.54;100.00;101731.88;10312659;28;20043;-77
2022/09/10 20:08:32;;;;;;;0.60;0.30;;;;;;;16.46;100.00;101730.06;10292067;28;20097;-76
2022/09/10 20:13:35;;;;;;;0.90;0.55;;;;;;;16.43;100.00;101745.59;10282814;28;20077;-76
2022/09/10 20:18:37;;;;;;;1.35;0.57;;;;;;;16.39;100.00;101753.31;10302121;28;20142;-76
2022/09/10 20:23:44;;;;;;;0.30;0.25;;;;;;;16.34;100.00;101754.16;10298445;28;20136;-79
2022/09/10 20:28:52;;;;;;;0.57;0.52;;;;;;;16.29;100.00;101762.72;10295207;28;20039;-79
2022/09/10 20:33:56;;;;;;;0.22;0.22;;;;;;;16.27;100.00;101767.03;10284054;28;20101;-78
2022/09/10 20:38:57;;;;;;;0.80;0.63;;;;;;;16.24;100.00;101777.38;10301701;28;20050;-79
2022/09/10 20:44:00;;;;;;;0.32;0.28;;;;;;;16.20;100.00;101780.75;10282225;28;20086;-80
2022/09/10 20:49:02;;;;;;;0.20;0.20;;;;;;;16.09;100.00;101793.56;10285178;28;20466;-79
2022/09/10 20:54:06;;;;;;;0.52;0.28;;;;;;;16.00;100.00;101804.69;10311190;28;20054;-79
2022/09/10 20:59:10;;;;;;;1.75;0.60;;;;;;;15.84;100.00;101814.81;10282372;28;20120;-79
2022/09/10 21:04:20;;;;;;;0.83;0.50;;;;;;;15.78;100.00;101819.88;10304876;28;20047;-79
2022/09/10 21:09:24;;;;;;;0.55;0.38;;;;;;;15.66;100.00;101820.50;10297063;28;20078;-80
2022/09/10 21:14:26;;;;;;;0.47;0.13;;;;;;;15.61;100.00;101826.44;10290636;28;20054;-80
2022/09/10 21:19:33;;;;;;;0.43;0.20;;;;;;;15.56;100.00;101844.56;10293057;28;20456;-79
2022/09/10 21:24:38;;;;;;;1.13;0.47;;;;;;;15.51;100.00;101852.25;10294918;28;20160;-79
2022/09/10 21:29:40;;;;;;;1.20;0.40;;;;;;;15.49;100.00;101853.94;10295047;28;20117;-80
2022/09/10 21:34:41;;;;;;;0.32;0.32;;;;;;;15.34;100.00;101864.00;10266570;28;20078;-79
2022/09/10 21:39:43;;;;;;;0.15;0.15;;;;;;;15.33;100.00;101870.03;10296804;28;20054;-79
2022/09/10 21:45:10;;;;;;;0.17;0.17;;;;;;;15.21;100.00;101863.72;10311619;28;20051;-78
2022/09/10 21:50:11;;;;;;;0.40;0.35;;;;;;;15.15;100.00;101878.28;10300067;28;20046;-78
2022/09/10 21:55:15;;;;;;;1.08;0.93;;;;;;;15.10;100.00;101878.16;10312407;28;20050;-78
2022/09/10 22:00:17;;;;;;;1.67;0.70;;;;;;;14.99;100.00;101879.66;10303405;28;20386;-78
2022/09/10 22:05:20;;;;;;;0.55;0.45;;;;;;;14.67;100.00;101884.94;10301624;28;20057;-78
2022/09/10 22:10:22;;;;;;;1.00;0.38;;;;;;;14.47;100.00;101895.66;10309032;28;20074;-79
2022/09/10 22:15:23;;;;;;;0.30;0.30;;;;;;;14.35;100.00;101913.47;10330753;28;20047;-79
2022/09/10 22:20:25;;;;;;;0.40;0.40;;;;;;;14.25;100.00;102063.59;10292939;28;20121;-79
2022/09/10 22:25:27;;;;;;;1.30;0.65;;;;;;;14.19;100.00;102065.97;10317789;28;20129;-78
2022/09/10 22:30:28;;;;;;;1.02;0.38;;;;;;;14.04;100.00;102068.09;10313842;28;20141;-78
2022/09/10 22:35:30;;;;;;;2.92;0.90;;;;;;;13.92;100.00;102079.00;10312702;28;20494;-78
2022/09/10 22:40:32;;;;;;;1.15;0.57;;;;;;;13.88;100.00;102084.91;10283923;28;20081;-78
2022/09/10 22:45:33;;;;;;;0.73;0.35;;;;;;;13.96;100.00;102081.72;10308139;28;20137;-77
2022/09/10 22:50:35;;;;;;;0.57;0.40;;;;;;;13.60;100.00;102086.63;10327275;28;20049;-78
2022/09/10 22:55:37;;;;;;;0.73;0.22;;;;;;;13.48;100.00;102081.91;10338955;28;20100;-78
2022/09/10 23:00:38;;;;;;;0.13;0.13;;;;;;;13.46;100.00;102081.88;10294791;28;20046;-78
2022/09/10 23:05:40;;;;;;;0.63;0.35;;;;;;;13.33;100.00;102087.41;10300436;28;20071;-78
2022/09/10 23:10:43;;;;;;;0.40;0.17;;;;;;;13.40;100.00;102111.84;10284727;28;20422;-78
2022/09/10 23:15:45;;;;;;;0.40;0.40;;;;;;;13.57;100.00;102127.94;10300154;28;20509;-78